sensor_id;sensor_type;location;lat;lon;timestamp;pressure;altitude;pressure_sealevel;temperature;humidity
63097;BME280;49185;42.320;23.198;2023-08-12T00:00:10;95400.78;;;13.52;100.00
63097;BME280;49185;42.320;23.198;2023-08-12T00:02:37;95400.28;;;13.55;100.00
63097;BME280;49185;42.320;23.198;2023-08-12T00:05:02;95403.44;;;13.52;100.00
63097;BME280;49185;42.320;23.198;2023-08-12T00:07:27;95400.22;;;13.50;100.00
63097;BME280;49185;42.320;23.198;2023-08-12T00:09:53;95391.66;;;13.48;100.00
63097;BME280;49185;42.320;23.198;2023-08-12T00:12:18;95400.22;;;13.50;100.00
63097;BME280;49185;42.320;23.198;2023-08-12T00:14:44;95389.53;;;13.50;100.00
63097;BME280;49185;42.320;23.198;2023-08-12T00:17:09;95393.31;;;13.54;100.00
63097;BME280;49185;42.320;23.198;2023-08-12T00:19:35;95388.78;;;13.55;100.00
63097;BME280;49185;42.320;23.198;2023-08-12T00:22:00;95400.78;;;13.52;100.00
63097;BME280;49185;42.320;23.198;2023-08-12T00:24:25;95392.00;;;13.57;100.00
63097;BME280;49185;42.320;23.198;2023-08-12T00:26:51;95391.72;;;13.53;100.00
63097;BME280;49185;42.320;23.198;2023-08-12T00:29:16;95393.25;;;13.49;100.00
63097;BME280;49185;42.320;23.198;2023-08-12T00:31:42;95388.66;;;13.44;100.00
63097;BME280;49185;42.320;23.198;2023-08-12T00:34:07;95389.97;;;13.42;100.00
63097;BME280;49185;42.320;23.198;2023-08-12T00:36:33;95392.06;;;13.40;100.00
63097;BME280;49185;42.320;23.198;2023-08-12T00:38:58;95389.97;;;13.42;100.00
63097;BME280;49185;42.320;23.198;2023-08-12T00:41:23;95388.34;;;13.41;100.00
63097;BME280;49185;42.320;23.198;2023-08-12T00:43:49;95385.94;;;13.39;100.00
63097;BME280;49185;42.320;23.198;2023-08-12T00:46:14;95386.72;;;13.40;100.00
63097;BME280;49185;42.320;23.198;2023-08-12T00:48:40;95388.59;;;13.39;100.00
63097;BME280;49185;42.320;23.198;2023-08-12T00:51:05;95381.38;;;13.40;100.00
63097;BME280;49185;42.320;23.198;2023-08-12T00:53:31;95375.78;;;13.41;100.00
63097;BME280;49185;42.320;23.198;2023-08-12T00:55:57;95372.38;;;13.46;100.00
63097;BME280;49185;42.320;23.198;2023-08-12T00:58:22;95376.66;;;13.47;100.00
63097;BME280;49185;42.320;23.198;2023-08-12T01:00:48;95374.50;;;13.44;100.00
63097;BME280;49185;42.320;23.198;2023-08-12T01:03:14;95368.31;;;13.43;100.00
63097;BME280;49185;42.320;23.198;2023-08-12T01:05:39;95369.09;;;13.39;100.00
63097;BME280;49185;42.320;23.198;2023-08-12T01:08:05;95372.56;;;13.39;100.00
63097;BME280;49185;42.320;23.198;2023-08-12T01:10:35;95365.03;;;13.36;100.00
63097;BME280;49185;42.320;23.198;2023-08-12T01:15:30;95364.97;;;13.31;100.00
63097;BME280;49185;42.320;23.198;2023-08-12T01:17:58;95359.94;;;13.35;100.00
63097;BME280;49185;42.320;23.198;2023-08-12T01:20:25;95371.19;;;13.37;100.00
63097;BME280;49185;42.320;23.198;2023-08-12T01:23:13;95361.06;;;13.39;100.00
63097;BME280;49185;42.320;23.198;2023-08-12T01:25:40;95357.03;;;13.36;100.00
63097;BME280;49185;42.320;23.198;2023-08-12T01:28:06;95358.41;;;13.39;100.00
63097;BME280;49185;42.320;23.198;2023-08-12T01:30:33;95361.88;;;13.39;100.00
63097;BME280;49185;42.320;23.198;2023-08-12T01:35:55;95355.25;;;13.47;100.00
63097;BME280;49185;42.320;23.198;2023-08-12T01:38:24;95356.03;;;13.42;100.00
63097;BME280;49185;42.320;23.198;2023-08-12T01:40:52;95355.72;;;13.39;100.00
63097;BME280;49185;42.320;23.198;2023-08-12T01:43:18;95350.78;;;13.30;100.00
63097;BME280;49185;42.320;23.198;2023-08-12T01:45:44;95347.75;;;13.22;100.00
63097;BME280;49185;42.320;23.198;2023-08-12T01:48:09;95354.34;;;13.14;100.00
63097;BME280;49185;42.320;23.198;2023-08-12T01:50:34;95353.47;;;13.08;100.00
63097;BME280;49185;42.320;23.198;2023-08-12T01:53:00;95355.00;;;13.04;100.00
63097;BME280;49185;42.320;23.198;2023-08-12T01:55:25;95357.13;;;13.02;100.00
63097;BME280;49185;42.320;23.198;2023-08-12T01:57:51;95359.50;;;12.99;100.00
63097;BME280;49185;42.320;23.198;2023-08-12T02:00:16;95361.13;;;13.00;100.00
63097;BME280;49185;42.320;23.198;2023-08-12T02:02:42;95360.28;;;12.99;100.00
63097;BME280;49185;42.320;23.198;2023-08-12T02:05:07;95356.56;;;13.00;100.00
63097;BME280;49185;42.320;23.198;2023-08-12T02:07:33;95353.59;;;12.97;100.00
63097;BME280;49185;42.320;23.198;2023-08-12T02:09:58;95359.91;;;12.90;100.00
63097;BME280;49185;42.320;23.198;2023-08-12T02:12:24;95358.25;;;12.84;100.00
63097;BME280;49185;42.320;23.198;2023-08-12T02:14:49;95363.75;;;12.78;100.00
63097;BME280;49185;42.320;23.198;2023-08-12T02:17:15;95360.75;;;12.74;100.00
63097;BME280;49185;42.320;23.198;2023-08-12T02:19:40;95367.97;;;12.73;100.00
63097;BME280;49185;42.320;23.198;2023-08-12T02:22:05;95363.69;;;12.72;100.00
63097;BME280;49185;42.320;23.198;2023-08-12T02:24:31;95367.66;;;12.70;100.00
63097;BME280;49185;42.320;23.198;2023-08-12T02:26:56;95371.63;;;12.67;100.00
63097;BME280;49185;42.320;23.198;2023-08-12T02:29:22;95370.50;;;12.63;100.00
63097;BME280;49185;42.320;23.198;2023-08-12T02:31:47;95374.22;;;12.62;100.00
63097;BME280;49185;42.320;23.198;2023-08-12T02:34:12;95368.81;;;12.57;100.00
63097;BME280;49185;42.320;23.198;2023-08-12T02:36:38;95373.25;;;12.51;100.00
63097;BME280;49185;42.320;23.198;2023-08-12T02:39:03;95372.94;;;12.48;100.00
63097;BME280;49185;42.320;23.198;2023-08-12T02:41:29;95376.59;;;12.42;100.00
63097;BME280;49185;42.320;23.198;2023-08-12T02:43:55;95370.94;;;12.38;100.00
63097;BME280;49185;42.320;23.198;2023-08-12T02:46:20;95376.75;;;12.35;100.00
63097;BME280;49185;42.320;23.198;2023-08-12T02:48:46;95380.97;;;12.31;100.00
63097;BME280;49185;42.320;23.198;2023-08-12T02:51:11;95384.34;;;12.26;100.00
63097;BME280;49185;42.320;23.198;2023-08-12T02:53:37;95387.16;;;12.20;100.00
63097;BME280;49185;42.320;23.198;2023-08-12T02:56:02;95387.91;;;12.15;100.00
63097;BME280;49185;42.320;23.198;2023-08-12T02:58:28;95396.16;;;12.13;100.00
63097;BME280;49185;42.320;23.198;2023-08-12T03:00:54;95390.16;;;12.06;100.00
63097;BME280;49185;42.320;23.198;2023-08-12T03:03:20;95389.59;;;12.04;100.00
63097;BME280;49185;42.320;23.198;2023-08-12T03:05:47;95389.53;;;11.99;100.00
63097;BME280;49185;42.320;23.198;2023-08-12T03:08:12;95389.00;;;12.02;100.00
63097;BME280;49185;42.320;23.198;2023-08-12T03:10:38;95388.44;;;12.00;100.00
63097;BME280;49185;42.320;23.198;2023-08-12T03:13:03;95388.22;;;12.02;100.00
63097;BME280;49185;42.320;23.198;2023-08-12T03:15:29;95389.53;;;11.99;100.00
63097;BME280;49185;42.320;23.198;2023-08-12T03:17:56;95392.75;;;12.01;100.00
63097;BME280;49185;42.320;23.198;2023-08-12T03:20:21;95398.41;;;12.05;100.00
63097;BME280;49185;42.320;23.198;2023-08-12T03:22:47;95391.22;;;12.05;100.00
63097;BME280;49185;42.320;23.198;2023-08-12T03:25:12;95390.81;;;12.13;100.00
63097;BME280;49185;42.320;23.198;2023-08-12T03:27:37;95392.75;;;12.18;100.00
63097;BME280;49185;42.320;23.198;2023-08-12T03:30:03;95391.72;;;12.19;100.00
63097;BME280;49185;42.320;23.198;2023-08-12T03:32:28;95401.09;;;12.22;100.00
63097;BME280;49185;42.320;23.198;2023-08-12T03:34:54;95398.16;;;12.23;100.00
63097;BME280;49185;42.320;23.198;2023-08-12T03:37:19;95395.78;;;12.22;100.00
63097;BME280;49185;42.320;23.198;2023-08-12T03:39:45;95400.03;;;12.23;100.00
63097;BME280;49185;42.320;23.198;2023-08-12T03:42:10;95401.47;;;12.30;100.00
63097;BME280;49185;42.320;23.198;2023-08-12T03:44:35;95395.66;;;12.33;100.00
63097;BME280;49185;42.320;23.198;2023-08-12T03:47:01;95397.78;;;12.31;100.00
63097;BME280;49185;42.320;23.198;2023-08-12T03:49:26;95403.66;;;12.33;100.00
63097;BME280;49185;42.320;23.198;2023-08-12T03:51:52;95406.97;;;12.41;100.00
63097;BME280;49185;42.320;23.198;2023-08-12T03:54:18;95401.50;;;12.47;100.00
63097;BME280;49185;42.320;23.198;2023-08-12T03:56:43;95401.56;;;12.52;100.00
63097;BME280;49185;42.320;23.198;2023-08-12T03:59:09;95406.25;;;12.62;100.00
63097;BME280;49185;42.320;23.198;2023-08-12T04:01:34;95400.50;;;12.70;100.00
63097;BME280;49185;42.320;23.198;2023-08-12T04:03:59;95401.94;;;12.78;100.00
63097;BME280;49185;42.320;23.198;2023-08-12T04:06:25;95400.78;;;12.91;100.00
63097;BME280;49185;42.320;23.198;2023-08-12T04:08:50;95393.66;;;12.97;100.00
63097;BME280;49185;42.320;23.198;2023-08-12T04:11:16;95395.31;;;13.03;100.00
63097;BME280;49185;42.320;23.198;2023-08-12T04:13:41;95399.13;;;13.07;100.00
63097;BME280;49185;42.320;23.198;2023-08-12T04:16:06;95397.66;;;13.16;100.00
63097;BME280;49185;42.320;23.198;2023-08-12T04:18:32;95400.44;;;13.26;100.00
63097;BME280;49185;42.320;23.198;2023-08-12T04:20:57;95398.50;;;13.39;100.00
63097;BME280;49185;42.320;23.198;2023-08-12T04:23:23;95400.47;;;13.48;100.00
63097;BME280;49185;42.320;23.198;2023-08-12T04:25:48;95396.03;;;13.59;100.00
63097;BME280;49185;42.320;23.198;2023-08-12T04:28:15;95403.38;;;13.69;100.00
63097;BME280;49185;42.320;23.198;2023-08-12T04:30:42;95400.03;;;13.84;100.00
63097;BME280;49185;42.320;23.198;2023-08-12T04:33:07;95400.09;;;13.89;100.00
63097;BME280;49185;42.320;23.198;2023-08-12T04:35:33;95401.78;;;14.00;100.00
63097;BME280;49185;42.320;23.198;2023-08-12T04:37:58;95396.84;;;14.14;100.00
63097;BME280;49185;42.320;23.198;2023-08-12T04:40:24;95403.91;;;14.26;100.00
63097;BME280;49185;42.320;23.198;2023-08-12T04:42:49;95406.09;;;14.34;100.00
63097;BME280;49185;42.320;23.198;2023-08-12T04:45:15;95408.03;;;14.38;100.00
63097;BME280;49185;42.320;23.198;2023-08-12T04:47:40;95408.88;;;14.44;100.00
63097;BME280;49185;42.320;23.198;2023-08-12T04:50:06;95401.72;;;14.55;100.00
63097;BME280;49185;42.320;23.198;2023-08-12T04:52:32;95401.31;;;14.68;100.00
63097;BME280;49185;42.320;23.198;2023-08-12T04:54:57;95405.13;;;14.77;100.00
63097;BME280;49185;42.320;23.198;2023-08-12T04:57:22;95400.94;;;14.92;100.00
63097;BME280;49185;42.320;23.198;2023-08-12T04:59:48;95403.38;;;14.98;100.00
63097;BME280;49185;42.320;23.198;2023-08-12T05:02:13;95409.34;;;15.11;100.00
63097;BME280;49185;42.320;23.198;2023-08-12T05:04:39;95405.94;;;15.26;100.00
63097;BME280;49185;42.320;23.198;2023-08-12T05:07:04;95413.75;;;15.37;100.00
63097;BME280;49185;42.320;23.198;2023-08-12T05:09:29;95404.22;;;15.62;100.00
63097;BME280;49185;42.320;23.198;2023-08-12T05:11:55;95413.75;;;16.31;100.00
63097;BME280;49185;42.320;23.198;2023-08-12T05:14:20;95408.91;;;16.69;98.58
63097;BME280;49185;42.320;23.198;2023-08-12T05:16:46;95408.91;;;16.95;96.50
63097;BME280;49185;42.320;23.198;2023-08-12T05:19:11;95405.97;;;16.86;96.32
63097;BME280;49185;42.320;23.198;2023-08-12T05:21:36;95412.97;;;16.87;96.94
63097;BME280;49185;42.320;23.198;2023-08-12T05:24:02;95409.69;;;17.06;94.73
63097;BME280;49185;42.320;23.198;2023-08-12T05:26:28;95417.41;;;17.33;93.02
63097;BME280;49185;42.320;23.198;2023-08-12T05:28:53;95409.81;;;17.51;91.95
63097;BME280;49185;42.320;23.198;2023-08-12T05:31:19;95414.78;;;17.18;92.95
63097;BME280;49185;42.320;23.198;2023-08-12T05:33:44;95419.75;;;18.15;88.56
63097;BME280;49185;42.320;23.198;2023-08-12T05:36:09;95416.31;;;18.44;88.19
63097;BME280;49185;42.320;23.198;2023-08-12T05:38:35;95416.59;;;19.06;85.36
63097;BME280;49185;42.320;23.198;2023-08-12T05:41:00;95418.13;;;19.18;84.09
63097;BME280;49185;42.320;23.198;2023-08-12T05:43:26;95416.78;;;18.51;85.70
63097;BME280;49185;42.320;23.198;2023-08-12T05:45:51;95412.13;;;18.28;89.62
63097;BME280;49185;42.320;23.198;2023-08-12T05:48:16;95421.97;;;18.08;89.17
63097;BME280;49185;42.320;23.198;2023-08-12T05:50:43;95420.25;;;18.23;87.85
63097;BME280;49185;42.320;23.198;2023-08-12T05:53:08;95422.91;;;18.62;87.63
63097;BME280;49185;42.320;23.198;2023-08-12T05:55:34;95421.44;;;18.75;85.76
63097;BME280;49185;42.320;23.198;2023-08-12T05:57:59;95416.22;;;18.20;87.81
63097;BME280;49185;42.320;23.198;2023-08-12T06:00:24;95419.03;;;18.05;89.50
63097;BME280;49185;42.320;23.198;2023-08-12T06:02:50;95425.41;;;18.53;87.95
63097;BME280;49185;42.320;23.198;2023-08-12T06:05:15;95414.59;;;19.89;81.34
63097;BME280;49185;42.320;23.198;2023-08-12T06:07:41;95417.22;;;20.71;75.59
63097;BME280;49185;42.320;23.198;2023-08-12T06:10:06;95410.34;;;21.53;73.06
63097;BME280;49185;42.320;23.198;2023-08-12T06:12:32;95413.25;;;22.21;70.74
63097;BME280;49185;42.320;23.198;2023-08-12T06:14:57;95417.28;;;22.91;68.03
63097;BME280;49185;42.320;23.198;2023-08-12T06:17:23;95403.72;;;22.60;68.83
63097;BME280;49185;42.320;23.198;2023-08-12T06:19:48;95404.84;;;22.90;64.42
63097;BME280;49185;42.320;23.198;2023-08-12T06:22:14;95408.06;;;23.15;64.72
63097;BME280;49185;42.320;23.198;2023-08-12T06:24:39;95415.38;;;23.45;63.68
63097;BME280;49185;42.320;23.198;2023-08-12T06:27:05;95409.25;;;22.77;64.85
63097;BME280;49185;42.320;23.198;2023-08-12T06:29:30;95403.72;;;23.13;63.65
63097;BME280;49185;42.320;23.198;2023-08-12T06:31:56;95399.81;;;22.74;64.74
63097;BME280;49185;42.320;23.198;2023-08-12T06:34:21;95404.16;;;23.38;64.22
63097;BME280;49185;42.320;23.198;2023-08-12T06:36:46;95403.69;;;23.85;60.41
63097;BME280;49185;42.320;23.198;2023-08-12T06:39:12;95397.03;;;24.17;60.00
63097;BME280;49185;42.320;23.198;2023-08-12T06:41:37;95392.97;;;23.88;60.83
63097;BME280;49185;42.320;23.198;2023-08-12T06:44:03;95393.16;;;24.10;60.65
63097;BME280;49185;42.320;23.198;2023-08-12T06:46:28;95399.13;;;24.55;58.86
63097;BME280;49185;42.320;23.198;2023-08-12T06:48:54;95396.63;;;25.06;55.75
63097;BME280;49185;42.320;23.198;2023-08-12T06:51:19;95392.84;;;24.90;57.72
63097;BME280;49185;42.320;23.198;2023-08-12T06:53:44;95396.78;;;25.27;55.45
63097;BME280;49185;42.320;23.198;2023-08-12T06:56:10;95388.16;;;24.99;54.56
63097;BME280;49185;42.320;23.198;2023-08-12T06:58:35;95393.41;;;25.13;55.03
63097;BME280;49185;42.320;23.198;2023-08-12T07:01:01;95396.91;;;25.69;54.31
63097;BME280;49185;42.320;23.198;2023-08-12T07:03:26;95393.19;;;25.74;53.64
63097;BME280;49185;42.320;23.198;2023-08-12T07:05:53;95396.19;;;25.81;53.73
63097;BME280;49185;42.320;23.198;2023-08-12T07:08:18;95391.31;;;25.66;54.30
63097;BME280;49185;42.320;23.198;2023-08-12T07:10:44;95391.16;;;25.15;53.16
63097;BME280;49185;42.320;23.198;2023-08-12T07:13:09;95389.50;;;24.23;57.69
63097;BME280;49185;42.320;23.198;2023-08-12T07:15:35;95388.16;;;25.08;54.46
63097;BME280;49185;42.320;23.198;2023-08-12T07:18:00;95394.09;;;24.92;53.28
63097;BME280;49185;42.320;23.198;2023-08-12T07:20:26;95395.47;;;25.16;52.77
63097;BME280;49185;42.320;23.198;2023-08-12T07:22:51;95390.06;;;25.07;53.69
63097;BME280;49185;42.320;23.198;2023-08-12T07:25:17;95386.94;;;25.35;54.01
63097;BME280;49185;42.320;23.198;2023-08-12T07:27:42;95388.06;;;25.72;53.49
63097;BME280;49185;42.320;23.198;2023-08-12T07:30:08;95392.25;;;25.31;53.12
63097;BME280;49185;42.320;23.198;2023-08-12T07:32:36;95382.59;;;25.72;51.33
63097;BME280;49185;42.320;23.198;2023-08-12T07:35:03;95376.03;;;26.03;49.69
63097;BME280;49185;42.320;23.198;2023-08-12T07:37:29;95369.03;;;25.93;50.17
63097;BME280;49185;42.320;23.198;2023-08-12T07:39:54;95378.13;;;26.82;47.85
63097;BME280;49185;42.320;23.198;2023-08-12T07:42:20;95368.91;;;27.44;47.72
63097;BME280;49185;42.320;23.198;2023-08-12T07:44:45;95369.44;;;26.46;50.14
63097;BME280;49185;42.320;23.198;2023-08-12T07:47:11;95372.41;;;27.20;45.85
63097;BME280;49185;42.320;23.198;2023-08-12T07:49:36;95363.97;;;26.67;48.34
63097;BME280;49185;42.320;23.198;2023-08-12T07:52:01;95364.47;;;25.47;51.38
63097;BME280;49185;42.320;23.198;2023-08-12T07:54:27;95363.91;;;26.55;49.01
63097;BME280;49185;42.320;23.198;2023-08-12T07:56:52;95356.84;;;26.87;47.36
63097;BME280;49185;42.320;23.198;2023-08-12T07:59:18;95348.81;;;27.03;47.74
63097;BME280;49185;42.320;23.198;2023-08-12T08:01:43;95349.88;;;25.72;47.80
63097;BME280;49185;42.320;23.198;2023-08-12T08:04:09;95345.16;;;26.32;46.72
63097;BME280;49185;42.320;23.198;2023-08-12T08:06:34;95346.19;;;27.07;46.96
63097;BME280;49185;42.320;23.198;2023-08-12T08:08:59;95350.31;;;27.13;45.20
63097;BME280;49185;42.320;23.198;2023-08-12T08:11:25;95341.44;;;27.78;45.31
63097;BME280;49185;42.320;23.198;2023-08-12T08:13:51;95347.88;;;27.33;46.63
63097;BME280;49185;42.320;23.198;2023-08-12T08:16:17;95341.72;;;27.36;47.45
63097;BME280;49185;42.320;23.198;2023-08-12T08:18:42;95337.94;;;26.82;46.25
63097;BME280;49185;42.320;23.198;2023-08-12T08:21:08;95348.50;;;27.17;46.28
63097;BME280;49185;42.320;23.198;2023-08-12T08:23:33;95349.41;;;27.21;46.46
63097;BME280;49185;42.320;23.198;2023-08-12T08:25:59;95345.09;;;27.20;49.34
63097;BME280;49185;42.320;23.198;2023-08-12T08:28:24;95345.13;;;27.45;47.02
63097;BME280;49185;42.320;23.198;2023-08-12T08:30:49;95337.47;;;27.75;48.76
63097;BME280;49185;42.320;23.198;2023-08-12T08:33:15;95334.47;;;28.17;47.36
63097;BME280;49185;42.320;23.198;2023-08-12T08:35:40;95338.38;;;27.79;48.53
63097;BME280;49185;42.320;23.198;2023-08-12T08:38:06;95332.88;;;27.18;47.75
63097;BME280;49185;42.320;23.198;2023-08-12T08:40:31;95325.66;;;27.59;47.03
63097;BME280;49185;42.320;23.198;2023-08-12T08:43:02;95334.66;;;27.47;47.97
63097;BME280;49185;42.320;23.198;2023-08-12T08:45:30;95333.25;;;27.04;51.80
63097;BME280;49185;42.320;23.198;2023-08-12T08:47:58;95333.28;;;27.28;51.31
63097;BME280;49185;42.320;23.198;2023-08-12T08:50:24;95330.94;;;26.94;47.65
63097;BME280;49185;42.320;23.198;2023-08-12T08:52:51;95320.44;;;26.83;50.39
63097;BME280;49185;42.320;23.198;2023-08-12T08:55:18;95318.03;;;27.40;46.70
63097;BME280;49185;42.320;23.198;2023-08-12T08:57:44;95321.75;;;27.84;49.09
63097;BME280;49185;42.320;23.198;2023-08-12T09:00:09;95316.34;;;28.13;46.22
63097;BME280;49185;42.320;23.198;2023-08-12T09:02:35;95313.78;;;27.18;46.76
63097;BME280;49185;42.320;23.198;2023-08-12T09:05:01;95312.50;;;27.03;48.47
63097;BME280;49185;42.320;23.198;2023-08-12T09:07:27;95312.69;;;26.73;49.72
63097;BME280;49185;42.320;23.198;2023-08-12T09:09:54;95309.28;;;26.76;52.41
63097;BME280;49185;42.320;23.198;2023-08-12T09:12:21;95309.28;;;27.34;48.69
63097;BME280;49185;42.320;23.198;2023-08-12T09:14:48;95302.63;;;27.60;48.92
63097;BME280;49185;42.320;23.198;2023-08-12T09:17:14;95296.44;;;28.00;46.31
63097;BME280;49185;42.320;23.198;2023-08-12T09:19:39;95296.00;;;27.86;48.17
63097;BME280;49185;42.320;23.198;2023-08-12T09:22:07;95290.66;;;28.58;45.91
63097;BME280;49185;42.320;23.198;2023-08-12T09:24:33;95298.28;;;28.52;45.63
63097;BME280;49185;42.320;23.198;2023-08-12T09:26:58;95292.94;;;28.44;46.04
63097;BME280;49185;42.320;23.198;2023-08-12T09:29:29;95288.34;;;28.03;50.49
63097;BME280;49185;42.320;23.198;2023-08-12T09:32:05;95280.84;;;28.57;46.89
63097;BME280;49185;42.320;23.198;2023-08-12T09:34:31;95274.06;;;28.98;46.11
63097;BME280;49185;42.320;23.198;2023-08-12T09:36:56;95283.38;;;29.26;43.15
63097;BME280;49185;42.320;23.198;2023-08-12T09:39:21;95273.53;;;29.09;42.74
63097;BME280;49185;42.320;23.198;2023-08-12T09:41:47;95273.25;;;28.82;44.85
63097;BME280;49185;42.320;23.198;2023-08-12T09:44:13;95265.81;;;29.46;41.32
63097;BME280;49185;42.320;23.198;2023-08-12T09:46:38;95266.31;;;29.17;42.77
63097;BME280;49185;42.320;23.198;2023-08-12T09:49:04;95271.34;;;29.66;45.91
63097;BME280;49185;42.320;23.198;2023-08-12T09:51:35;95263.44;;;30.35;38.00
63097;BME280;49185;42.320;23.198;2023-08-12T09:54:00;95267.09;;;30.04;42.06
63097;BME280;49185;42.320;23.198;2023-08-12T09:56:28;95258.28;;;29.95;39.54
63097;BME280;49185;42.320;23.198;2023-08-12T09:58:59;95259.16;;;29.99;40.10
63097;BME280;49185;42.320;23.198;2023-08-12T10:01:26;95256.25;;;30.11;43.13
63097;BME280;49185;42.320;23.198;2023-08-12T10:03:53;95259.84;;;29.60;45.72
63097;BME280;49185;42.320;23.198;2023-08-12T10:06:20;95241.38;;;28.90;43.18
63097;BME280;49185;42.320;23.198;2023-08-12T10:08:46;95245.19;;;27.72;45.24
63097;BME280;49185;42.320;23.198;2023-08-12T10:11:12;95251.16;;;26.63;46.02
63097;BME280;49185;42.320;23.198;2023-08-12T10:13:40;95250.47;;;26.00;48.43
63097;BME280;49185;42.320;23.198;2023-08-12T10:16:05;95246.84;;;25.15;48.53
63097;BME280;49185;42.320;23.198;2023-08-12T10:18:32;95237.66;;;24.98;51.29
63097;BME280;49185;42.320;23.198;2023-08-12T10:20:59;95235.44;;;24.92;55.21
63097;BME280;49185;42.320;23.198;2023-08-12T10:23:25;95230.78;;;24.92;53.01
63097;BME280;49185;42.320;23.198;2023-08-12T10:25:53;95230.66;;;24.80;54.28
63097;BME280;49185;42.320;23.198;2023-08-12T10:28:19;95232.81;;;25.55;55.12
63097;BME280;49185;42.320;23.198;2023-08-12T10:30:45;95230.69;;;27.06;49.17
63097;BME280;49185;42.320;23.198;2023-08-12T10:33:14;95220.22;;;27.33;45.43
63097;BME280;49185;42.320;23.198;2023-08-12T10:35:46;95226.84;;;26.37;48.07
63097;BME280;49185;42.320;23.198;2023-08-12T10:38:19;95232.50;;;25.77;48.88
63097;BME280;49185;42.320;23.198;2023-08-12T10:40:45;95226.91;;;25.53;53.25
63097;BME280;49185;42.320;23.198;2023-08-12T10:43:14;95222.00;;;25.25;49.07
63097;BME280;49185;42.320;23.198;2023-08-12T10:45:52;95219.06;;;25.72;51.16
63097;BME280;49185;42.320;23.198;2023-08-12T10:48:22;95217.66;;;26.08;49.68
63097;BME280;49185;42.320;23.198;2023-08-12T10:50:59;95210.09;;;27.74;44.34
63097;BME280;49185;42.320;23.198;2023-08-12T10:53:28;95203.03;;;28.90;43.86
63097;BME280;49185;42.320;23.198;2023-08-12T10:55:59;95203.09;;;29.61;40.33
63097;BME280;49185;42.320;23.198;2023-08-12T10:58:35;95200.16;;;29.89;41.01
63097;BME280;49185;42.320;23.198;2023-08-12T11:01:01;95191.84;;;28.19;40.72
63097;BME280;49185;42.320;23.198;2023-08-12T11:03:31;95199.16;;;27.34;43.29
63097;BME280;49185;42.320;23.198;2023-08-12T11:05:59;95199.72;;;26.20;44.83
63097;BME280;49185;42.320;23.198;2023-08-12T11:08:26;95193.09;;;25.75;46.41
63097;BME280;49185;42.320;23.198;2023-08-12T11:10:54;95198.22;;;25.55;48.96
63097;BME280;49185;42.320;23.198;2023-08-12T11:13:20;95199.19;;;25.51;48.31
63097;BME280;49185;42.320;23.198;2023-08-12T11:15:47;95202.63;;;25.39;50.57
63097;BME280;49185;42.320;23.198;2023-08-12T11:18:14;95191.03;;;25.21;47.55
63097;BME280;49185;42.320;23.198;2023-08-12T11:20:40;95194.69;;;25.04;50.05
63097;BME280;49185;42.320;23.198;2023-08-12T11:23:09;95190.88;;;25.26;49.73
63097;BME280;49185;42.320;23.198;2023-08-12T11:25:36;95184.78;;;25.29;51.59
63097;BME280;49185;42.320;23.198;2023-08-12T11:28:03;95188.31;;;25.51;49.61
63097;BME280;49185;42.320;23.198;2023-08-12T11:30:29;95189.44;;;25.50;52.67
63097;BME280;49185;42.320;23.198;2023-08-12T11:32:55;95189.31;;;25.46;52.86
63097;BME280;49185;42.320;23.198;2023-08-12T11:35:22;95184.78;;;25.71;51.55
63097;BME280;49185;42.320;23.198;2023-08-12T11:37:53;95181.22;;;25.71;50.39
63097;BME280;49185;42.320;23.198;2023-08-12T11:40:19;95182.59;;;25.65;52.06
63097;BME280;49185;42.320;23.198;2023-08-12T11:42:46;95181.28;;;26.04;49.81
63097;BME280;49185;42.320;23.198;2023-08-12T11:45:13;95177.38;;;26.26;48.72
63097;BME280;49185;42.320;23.198;2023-08-12T11:47:40;95168.19;;;26.56;48.53
63097;BME280;49185;42.320;23.198;2023-08-12T11:50:07;95179.63;;;27.60;43.62
63097;BME280;49185;42.320;23.198;2023-08-12T11:52:33;95166.72;;;28.61;39.18
63097;BME280;49185;42.320;23.198;2023-08-12T11:54:59;95169.25;;;28.86;37.65
63097;BME280;49185;42.320;23.198;2023-08-12T11:57:26;95165.84;;;27.97;39.47
63097;BME280;49185;42.320;23.198;2023-08-12T11:59:51;95166.78;;;27.48;41.22
63097;BME280;49185;42.320;23.198;2023-08-12T12:02:17;95168.50;;;26.42;42.99
63097;BME280;49185;42.320;23.198;2023-08-12T12:04:43;95167.75;;;26.08;44.54
63097;BME280;49185;42.320;23.198;2023-08-12T12:07:38;95164.19;;;25.41;45.05
63097;BME280;49185;42.320;23.198;2023-08-12T12:10:05;95158.16;;;25.89;43.27
63097;BME280;49185;42.320;23.198;2023-08-12T12:12:33;95161.78;;;26.27;43.57
63097;BME280;49185;42.320;23.198;2023-08-12T12:14:59;95160.13;;;26.59;46.66
63097;BME280;49185;42.320;23.198;2023-08-12T12:17:24;95160.75;;;26.65;45.67
63097;BME280;49185;42.320;23.198;2023-08-12T12:19:55;95150.78;;;26.48;48.14
63097;BME280;49185;42.320;23.198;2023-08-12T12:22:29;95159.06;;;26.27;46.61
63097;BME280;49185;42.320;23.198;2023-08-12T12:24:58;95154.19;;;26.57;46.57
63097;BME280;49185;42.320;23.198;2023-08-12T12:27:24;95154.31;;;26.61;49.61
63097;BME280;49185;42.320;23.198;2023-08-12T12:29:49;95156.41;;;26.64;47.75
63097;BME280;49185;42.320;23.198;2023-08-12T12:32:18;95150.84;;;27.50;43.92
63097;BME280;49185;42.320;23.198;2023-08-12T12:34:43;95149.44;;;27.56;41.57
63097;BME280;49185;42.320;23.198;2023-08-12T12:37:09;95153.09;;;27.48;42.71
63097;BME280;49185;42.320;23.198;2023-08-12T12:39:34;95142.94;;;27.61;42.73
63097;BME280;49185;42.320;23.198;2023-08-12T12:42:00;95150.47;;;27.11;40.73
63097;BME280;49185;42.320;23.198;2023-08-12T13:07:54;95103.44;;;27.05;38.07